createdAt,value
2017-11-17T00:00:03.022Z,13.7
2017-11-17T00:01:10.377Z,13.7
2017-11-17T00:02:17.669Z,13.7
2017-11-17T00:03:21.405Z,13.7
2017-11-17T00:04:23.931Z,13.7
2017-11-17T00:05:26.408Z,13.8
2017-11-17T00:06:29.018Z,13.8
2017-11-17T00:07:31.522Z,13.8
2017-11-17T00:08:34.302Z,13.8
2017-11-17T00:09:37.114Z,13.8
2017-11-17T00:10:40.374Z,13.8
2017-11-17T00:11:42.879Z,13.8
2017-11-17T00:12:45.375Z,13.8
2017-11-17T00:13:48.175Z,13.8
2017-11-17T00:14:50.676Z,13.8
2017-11-17T00:15:53.202Z,13.8
2017-11-17T00:16:55.685Z,13.8
2017-11-17T00:17:58.192Z,13.8
2017-11-17T00:19:00.689Z,13.8
2017-11-17T00:20:03.193Z,13.7
2017-11-17T00:21:05.688Z,13.7
2017-11-17T00:22:08.185Z,13.6
2017-11-17T00:23:10.979Z,13.6
2017-11-17T00:24:13.495Z,13.6
2017-11-17T00:25:15.979Z,13.6
2017-11-17T00:26:18.487Z,13.6
2017-11-17T00:27:21.278Z,13.6
2017-11-17T00:28:23.775Z,13.6
2017-11-17T00:29:26.268Z,13.6
2017-11-17T00:30:28.776Z,13.6
2017-11-17T00:31:31.264Z,13.6
2017-11-17T00:32:33.765Z,13.6
2017-11-17T00:33:36.885Z,13.6
2017-11-17T00:34:39.983Z,13.6
2017-11-17T00:35:42.491Z,13.7
2017-11-17T00:36:45.264Z,13.7
2017-11-17T00:37:47.778Z,13.7
2017-11-17T00:38:50.286Z,13.7
2017-11-17T00:39:52.785Z,13.7
2017-11-17T00:40:55.580Z,13.8
2017-11-17T00:41:58.072Z,13.8
2017-11-17T00:43:00.566Z,13.8
2017-11-17T00:44:03.410Z,13.8
2017-11-17T00:45:06.205Z,13.8
2017-11-17T00:46:08.695Z,13.9
2017-11-17T00:47:11.196Z,13.9
2017-11-17T00:48:13.682Z,13.9
2017-11-17T00:49:16.204Z,13.9
2017-11-17T00:50:18.714Z,13.9
2017-11-17T00:51:21.203Z,13.9
2017-11-17T00:52:23.705Z,14
2017-11-17T00:53:26.207Z,14
2017-11-17T00:54:28.696Z,14
2017-11-17T00:55:31.200Z,14
2017-11-17T00:56:33.691Z,14
2017-11-17T00:57:36.492Z,14
2017-11-17T00:58:39.002Z,14
2017-11-17T00:59:41.497Z,14
2017-11-17T01:00:43.993Z,14
2017-11-17T01:01:46.496Z,14
2017-11-17T01:02:49.289Z,14
2017-11-17T01:03:51.784Z,14
2017-11-17T01:04:54.287Z,14
2017-11-17T01:05:56.786Z,14
2017-11-17T01:06:59.274Z,14
2017-11-17T01:08:01.802Z,14
2017-11-17T01:09:04.278Z,14
2017-11-17T01:10:06.768Z,14
2017-11-17T01:11:09.571Z,14
2017-11-17T01:12:12.363Z,14
2017-11-17T01:13:15.178Z,14
2017-11-17T01:14:17.681Z,14
2017-11-17T01:15:20.190Z,14
2017-11-17T01:16:22.680Z,14
2017-11-17T01:17:25.185Z,14
2017-11-17T01:18:27.980Z,14
2017-11-17T01:19:30.480Z,14
2017-11-17T01:20:32.990Z,14
2017-11-17T01:21:35.481Z,14
2017-11-17T01:22:38.277Z,14
2017-11-17T01:23:40.784Z,14
2017-11-17T01:24:43.566Z,14
2017-11-17T01:25:46.365Z,14
2017-11-17T01:26:48.876Z,14
2017-11-17T01:27:51.368Z,14
2017-11-17T01:28:53.889Z,13.9
2017-11-17T01:29:56.675Z,13.9
2017-11-17T01:30:59.182Z,13.9
2017-11-17T01:32:01.669Z,13.9
2017-11-17T01:33:04.168Z,13.8
2017-11-17T01:34:06.674Z,13.8
2017-11-17T01:35:09.473Z,13.8
2017-11-17T01:36:11.966Z,13.8
2017-11-17T01:37:14.465Z,13.8
2017-11-17T01:38:16.961Z,13.8
2017-11-17T01:39:19.468Z,13.8
2017-11-17T01:40:21.972Z,13.8
2017-11-17T01:41:24.449Z,13.8
2017-11-17T01:42:26.958Z,13.8
2017-11-17T01:43:29.453Z,13.8
2017-11-17T01:44:31.959Z,13.8
2017-11-17T01:45:34.466Z,13.8
2017-11-17T01:46:36.944Z,13.8
2017-11-17T01:47:39.446Z,13.7
2017-11-17T01:48:41.961Z,13.8
2017-11-17T01:49:44.448Z,13.7
2017-11-17T01:50:47.239Z,13.7
2017-11-17T01:51:49.744Z,13.7
2017-11-17T01:52:52.239Z,13.7
2017-11-17T01:53:54.744Z,13.6
2017-11-17T01:54:57.237Z,13.6
2017-11-17T01:55:59.724Z,13.6
2017-11-17T01:57:02.230Z,13.6
2017-11-17T01:58:04.719Z,13.6
2017-11-17T01:59:07.213Z,13.6
2017-11-17T02:00:09.702Z,13.6
2017-11-17T02:01:12.205Z,13.6
2017-11-17T02:02:14.704Z,13.6
2017-11-17T02:03:17.213Z,13.6
2017-11-17T02:04:19.715Z,13.6
2017-11-17T02:05:22.200Z,13.6
2017-11-17T02:06:24.696Z,13.6
2017-11-17T02:07:27.505Z,13.6
2017-11-17T02:08:30.005Z,13.5
2017-11-17T02:09:32.791Z,13.6
2017-11-17T02:10:35.278Z,13.5
2017-11-17T02:11:37.777Z,13.5
2017-11-17T02:12:40.282Z,13.5
2017-11-17T02:13:42.805Z,13.5
2017-11-17T02:14:45.274Z,13.5
2017-11-17T02:15:47.781Z,13.5
2017-11-17T02:16:50.276Z,13.5
2017-11-17T02:17:52.783Z,13.5
2017-11-17T02:18:55.281Z,13.4
2017-11-17T02:19:58.353Z,13.4
2017-11-17T02:21:00.849Z,13.3
2017-11-17T02:22:03.365Z,13.3
2017-11-17T02:23:05.853Z,13.2
2017-11-17T02:24:08.353Z,13.2
2017-11-17T02:25:10.849Z,13.2
2017-11-17T02:26:13.348Z,13.1
2017-11-17T02:27:15.853Z,13.1
2017-11-17T02:28:18.355Z,13
2017-11-17T02:29:20.834Z,13
2017-11-17T02:30:23.330Z,13
2017-11-17T02:31:25.850Z,12.9
2017-11-17T02:32:28.341Z,12.9
2017-11-17T02:33:30.840Z,12.9
2017-11-17T02:34:33.633Z,12.9
2017-11-17T02:35:36.133Z,12.8
2017-11-17T02:36:38.628Z,12.8
2017-11-17T02:37:41.133Z,12.8
2017-11-17T02:38:43.615Z,12.8
2017-11-17T02:39:46.415Z,12.8
2017-11-17T02:40:48.911Z,12.8
2017-11-17T02:41:51.406Z,12.8
2017-11-17T02:42:53.901Z,12.8
2017-11-17T02:43:57.016Z,12.8
2017-11-17T02:44:59.504Z,12.7
2017-11-17T02:46:02.006Z,12.7
2017-11-17T02:47:04.497Z,12.7
2017-11-17T02:48:07.001Z,12.7
2017-11-17T02:49:09.493Z,12.6
2017-11-17T02:50:11.997Z,12.6
2017-11-17T02:51:14.490Z,12.6
2017-11-17T02:52:16.997Z,12.6
2017-11-17T02:53:19.486Z,12.5
2017-11-17T02:54:21.990Z,12.6
2017-11-17T02:55:24.509Z,12.5
2017-11-17T02:56:26.988Z,12.5
2017-11-17T02:57:30.073Z,12.5
2017-11-17T02:58:32.569Z,12.5
2017-11-17T02:59:35.370Z,12.5
2017-11-17T03:00:37.879Z,12.5
2017-11-17T03:01:40.365Z,12.5
2017-11-17T03:02:42.870Z,12.5
2017-11-17T03:03:45.360Z,12.5
2017-11-17T03:04:47.848Z,12.5
2017-11-17T03:05:50.635Z,12.4
2017-11-17T03:06:53.141Z,12.4
2017-11-17T03:07:55.642Z,12.4
2017-11-17T03:08:58.143Z,12.4
2017-11-17T03:10:00.928Z,12.4
2017-11-17T03:11:03.722Z,12.4
2017-11-17T03:12:06.219Z,12.4
2017-11-17T03:13:09.027Z,12.3
2017-11-17T03:14:11.505Z,12.3
2017-11-17T03:15:14.009Z,12.3
2017-11-17T03:16:16.796Z,12.3
2017-11-17T03:17:19.301Z,12.2
2017-11-17T03:18:21.792Z,12.2
2017-11-17T03:19:24.289Z,12.2
2017-11-17T03:20:26.777Z,12.2
2017-11-17T03:21:29.284Z,12.2
2017-11-17T03:22:31.774Z,12.2
2017-11-17T03:23:34.267Z,12.2
2017-11-17T03:24:36.762Z,12.1
2017-11-17T03:25:39.259Z,12.1
2017-11-17T03:26:41.762Z,12.1
2017-11-17T03:27:44.569Z,12.1
2017-11-17T03:28:47.349Z,12.1
2017-11-17T03:29:49.842Z,12.1
2017-11-17T03:30:52.356Z,12
2017-11-17T03:31:54.860Z,12
2017-11-17T03:32:57.353Z,12
2017-11-17T03:33:59.853Z,12
2017-11-17T03:35:02.661Z,12
2017-11-17T03:36:05.142Z,11.9
2017-11-17T03:37:07.644Z,11.9
2017-11-17T03:38:10.130Z,11.9
2017-11-17T03:39:12.628Z,11.9
2017-11-17T03:40:15.134Z,11.8
2017-11-17T03:41:17.623Z,11.8
2017-11-17T03:42:20.116Z,11.8
2017-11-17T03:43:22.609Z,11.7
2017-11-17T03:44:25.682Z,11.7
2017-11-17T03:45:28.193Z,11.7
2017-11-17T03:46:30.685Z,11.7
2017-11-17T03:47:33.177Z,11.7
2017-11-17T03:48:35.672Z,11.6
2017-11-17T03:49:38.170Z,11.6
2017-11-17T03:50:40.653Z,11.6
2017-11-17T03:51:43.157Z,11.6
2017-11-17T03:52:45.639Z,11.6
2017-11-17T03:53:48.137Z,11.5
2017-11-17T03:54:50.643Z,11.5
2017-11-17T03:55:53.137Z,11.5
2017-11-17T03:56:55.648Z,11.5
2017-11-17T03:57:58.138Z,11.5
2017-11-17T03:59:00.635Z,11.5
2017-11-17T04:00:03.435Z,11.5
2017-11-17T04:01:05.936Z,11.5
2017-11-17T04:02:08.714Z,11.5
2017-11-17T04:03:11.227Z,11.5
2017-11-17T04:04:13.936Z,11.4
2017-11-17T04:05:16.432Z,11.5
2017-11-17T04:06:18.934Z,11.4
2017-11-17T04:07:21.425Z,11.4
2017-11-17T04:08:23.907Z,11.4
2017-11-17T04:09:26.421Z,11.4
2017-11-17T04:10:28.923Z,11.4
2017-11-17T04:11:31.409Z,11.4
2017-11-17T04:12:33.913Z,11.3
2017-11-17T04:13:36.401Z,11.3
2017-11-17T04:14:38.892Z,11.3
2017-11-17T04:15:41.388Z,11.3
2017-11-17T04:16:43.880Z,11.3
2017-11-17T04:17:46.372Z,11.3
2017-11-17T04:18:48.881Z,11.3
2017-11-17T04:19:51.859Z,11.2
2017-11-17T04:20:54.940Z,11.2
2017-11-17T04:21:57.448Z,11.2
2017-11-17T04:22:59.940Z,11.2
2017-11-17T04:24:02.434Z,11.2
2017-11-17T04:25:04.931Z,11.2
2017-11-17T04:26:07.706Z,11.1
2017-11-17T04:27:10.201Z,11.1
2017-11-17T04:28:12.724Z,11.1
2017-11-17T04:29:15.198Z,11
2017-11-17T04:30:17.688Z,11
2017-11-17T04:31:20.188Z,11
2017-11-17T04:32:22.692Z,11
2017-11-17T04:33:25.177Z,11
2017-11-17T04:34:27.671Z,10.9
2017-11-17T04:35:30.177Z,10.9
2017-11-17T04:36:32.662Z,10.9
2017-11-17T04:37:35.157Z,10.9
2017-11-17T04:38:37.656Z,10.9
2017-11-17T04:39:40.437Z,10.8
2017-11-17T04:40:43.261Z,10.8
2017-11-17T04:41:46.057Z,10.8
2017-11-17T04:42:48.533Z,10.8
2017-11-17T04:43:51.050Z,10.8
2017-11-17T04:44:53.529Z,10.8
2017-11-17T04:45:56.357Z,10.8
2017-11-17T04:46:58.836Z,10.7
2017-11-17T04:48:01.335Z,10.7
2017-11-17T04:49:04.128Z,10.7
2017-11-17T04:50:06.624Z,10.7
2017-11-17T04:51:09.110Z,10.7
2017-11-17T04:52:11.612Z,10.7
2017-11-17T04:53:14.096Z,10.7
2017-11-17T04:54:16.590Z,10.7
2017-11-17T04:55:19.084Z,10.6
2017-11-17T04:56:21.893Z,10.6
2017-11-17T04:57:24.384Z,10.6
2017-11-17T04:58:27.170Z,10.6
2017-11-17T04:59:29.683Z,10.6
2017-11-17T05:00:32.178Z,10.6
2017-11-17T05:01:34.970Z,10.6
2017-11-17T05:02:37.468Z,10.6
2017-11-17T05:03:39.996Z,10.6
2017-11-17T05:04:42.453Z,10.6
2017-11-17T05:05:44.959Z,10.6
2017-11-17T05:06:47.731Z,10.6
2017-11-17T05:07:50.231Z,10.5
2017-11-17T05:08:52.735Z,10.6
2017-11-17T05:09:55.225Z,10.5
2017-11-17T05:10:58.012Z,10.5
2017-11-17T05:12:00.519Z,10.5
2017-11-17T05:13:03.028Z,10.5
2017-11-17T05:14:05.820Z,10.5
2017-11-17T05:15:08.321Z,10.5
2017-11-17T05:16:10.803Z,10.5
2017-11-17T05:17:13.305Z,10.5
2017-11-17T05:18:15.805Z,10.5
2017-11-17T05:19:18.686Z,10.5
2017-11-17T05:20:21.248Z,10.5
2017-11-17T05:21:23.742Z,10.4
2017-11-17T05:22:26.537Z,10.4
2017-11-17T05:23:29.037Z,10.4
2017-11-17T05:24:31.520Z,10.4
2017-11-17T05:25:34.328Z,10.3
2017-11-17T05:26:36.817Z,10.3
2017-11-17T05:27:39.318Z,10.3
2017-11-17T05:28:41.808Z,10.3
2017-11-17T05:29:44.300Z,10.3
2017-11-17T05:30:46.804Z,10.3
2017-11-17T05:31:49.591Z,10.2
2017-11-17T05:32:52.070Z,10.2
2017-11-17T05:33:54.574Z,10.2
2017-11-17T05:34:57.060Z,10.2
2017-11-17T05:35:59.559Z,10.2
2017-11-17T05:37:02.053Z,10.2
2017-11-17T05:38:05.139Z,10.2
2017-11-17T05:39:07.632Z,10.2
2017-11-17T05:40:10.143Z,10.2
2017-11-17T05:41:12.630Z,10.2
2017-11-17T05:42:15.125Z,10.2
2017-11-17T05:43:17.928Z,10.2
2017-11-17T05:44:20.413Z,10.2
2017-11-17T05:45:22.913Z,10.2
2017-11-17T05:46:25.411Z,10.2
2017-11-17T05:47:27.920Z,10.2
2017-11-17T05:48:30.408Z,10.2
2017-11-17T05:49:32.911Z,10.1
2017-11-17T05:50:35.398Z,10.1
2017-11-17T05:51:37.903Z,10.1
2017-11-17T05:52:40.398Z,10.1
2017-11-17T05:53:42.904Z,10.1
2017-11-17T05:54:45.376Z,10.1
2017-11-17T05:55:48.170Z,10.1
2017-11-17T05:56:50.666Z,10.1
2017-11-17T05:57:53.169Z,10.1
2017-11-17T05:58:55.656Z,10.1
2017-11-17T05:59:58.153Z,10.1
2017-11-17T06:01:00.649Z,10.1
2017-11-17T06:02:03.432Z,10.1
2017-11-17T06:03:05.927Z,10.1
2017-11-17T06:04:08.745Z,10.1
2017-11-17T06:05:11.225Z,10.1
2017-11-17T06:06:13.728Z,10.1
2017-11-17T06:07:16.213Z,10.1
2017-11-17T06:08:18.711Z,10.1
2017-11-17T06:09:21.203Z,10.1
2017-11-17T06:10:23.702Z,10
2017-11-17T06:11:26.187Z,10
2017-11-17T06:12:28.686Z,10
2017-11-17T06:13:31.172Z,10
2017-11-17T06:14:33.669Z,10
2017-11-17T06:15:36.162Z,10
2017-11-17T06:16:38.664Z,9.9
2017-11-17T06:17:41.141Z,9.9
2017-11-17T06:18:43.648Z,9.9
2017-11-17T06:19:46.134Z,9.9
2017-11-17T06:20:48.623Z,9.9
2017-11-17T06:21:51.120Z,9.9
2017-11-17T06:22:53.607Z,9.9
2017-11-17T06:23:56.096Z,9.9
2017-11-17T06:24:58.904Z,9.9
2017-11-17T06:26:01.388Z,9.9
2017-11-17T06:27:04.171Z,9.8
2017-11-17T06:28:06.664Z,9.9
2017-11-17T06:29:09.477Z,9.8
2017-11-17T06:30:12.289Z,9.8
2017-11-17T06:31:15.093Z,9.8
2017-11-17T06:32:17.604Z,9.7
2017-11-17T06:33:20.386Z,9.7
2017-11-17T06:34:22.882Z,9.7
2017-11-17T06:35:25.525Z,9.7
2017-11-17T06:36:28.017Z,9.7
2017-11-17T06:37:30.520Z,9.7
2017-11-17T06:38:33.015Z,9.6
2017-11-17T06:39:35.497Z,9.6
2017-11-17T06:40:37.993Z,9.6
2017-11-17T06:41:40.793Z,9.6
2017-11-17T06:42:43.285Z,9.6
2017-11-17T06:43:46.082Z,9.6
2017-11-17T06:44:48.847Z,9.5
2017-11-17T06:45:51.634Z,9.5
2017-11-17T06:46:54.459Z,9.5
2017-11-17T06:47:57.250Z,9.5
2017-11-17T06:49:00.024Z,9.5
2017-11-17T06:50:02.528Z,9.5
2017-11-17T06:51:05.027Z,9.5
2017-11-17T06:52:07.819Z,9.4
2017-11-17T06:53:10.311Z,9.4
2017-11-17T06:54:12.810Z,9.4
2017-11-17T06:55:15.592Z,9.4
2017-11-17T06:56:18.097Z,9.4
2017-11-17T06:57:20.593Z,9.4
2017-11-17T06:58:23.075Z,9.4
2017-11-17T06:59:25.570Z,9.4
2017-11-17T07:00:28.058Z,9.4
2017-11-17T07:01:30.858Z,9.4
2017-11-17T07:02:33.361Z,9.4
2017-11-17T07:03:35.857Z,9.4
2017-11-17T07:04:38.345Z,9.4
2017-11-17T07:05:40.849Z,9.4
2017-11-17T07:06:43.344Z,9.5
2017-11-17T07:07:45.832Z,9.4
2017-11-17T07:08:48.322Z,9.5
2017-11-17T07:09:51.114Z,9.5
2017-11-17T07:10:53.604Z,9.5
2017-11-17T07:11:56.396Z,9.5
2017-11-17T07:12:58.878Z,9.6
2017-11-17T07:14:01.686Z,9.6
2017-11-17T07:15:04.193Z,9.6
2017-11-17T07:16:06.977Z,9.7
2017-11-17T07:17:10.068Z,9.7
2017-11-17T07:18:12.569Z,9.8
2017-11-17T07:19:15.063Z,9.8
2017-11-17T07:20:17.560Z,9.8
2017-11-17T07:21:20.063Z,9.9
2017-11-17T07:22:22.543Z,9.9
2017-11-17T07:23:25.076Z,10
2017-11-17T07:24:27.549Z,10.1
2017-11-17T07:25:30.036Z,10.1
2017-11-17T07:26:32.531Z,10.2
2017-11-17T07:27:35.037Z,10.2
2017-11-17T07:28:37.537Z,10.3
2017-11-17T07:29:40.014Z,10.4
2017-11-17T07:30:42.518Z,10.5
2017-11-17T07:31:45.014Z,10.5
2017-11-17T07:32:47.511Z,10.6
2017-11-17T07:33:50.011Z,10.7
2017-11-17T07:34:52.505Z,10.7
2017-11-17T07:35:55.292Z,10.8
2017-11-17T07:36:57.808Z,10.9
2017-11-17T07:38:00.591Z,11
2017-11-17T07:39:03.097Z,11
2017-11-17T07:40:05.592Z,11.1
2017-11-17T07:41:08.089Z,11.2
2017-11-17T07:42:10.873Z,11.3
2017-11-17T07:43:13.374Z,11.4
2017-11-17T07:44:15.867Z,11.5
2017-11-17T07:45:18.367Z,11.5
2017-11-17T07:46:20.863Z,11.6
2017-11-17T07:47:23.364Z,11.7
2017-11-17T07:48:26.441Z,11.8
2017-11-17T07:49:28.941Z,11.9
2017-11-17T07:50:31.430Z,11.9
2017-11-17T07:51:34.224Z,12
2017-11-17T07:52:36.722Z,11.9
2017-11-17T07:53:39.214Z,12
2017-11-17T07:54:41.707Z,12
2017-11-17T07:55:44.215Z,12
2017-11-17T07:56:46.721Z,12
2017-11-17T07:57:49.789Z,11.9
2017-11-17T07:58:52.287Z,11.9
2017-11-17T07:59:54.787Z,11.9
2017-11-17T08:00:57.579Z,11.9
2017-11-17T08:02:00.064Z,11.9
2017-11-17T08:03:02.886Z,11.9
2017-11-17T08:04:05.655Z,11.9
2017-11-17T08:05:08.161Z,11.9
2017-11-17T08:06:10.657Z,12
2017-11-17T08:07:13.448Z,12
2017-11-17T08:08:15.943Z,12.1
2017-11-17T08:09:18.448Z,12.2
2017-11-17T08:10:20.950Z,12.3
2017-11-17T08:11:23.746Z,12.4
2017-11-17T08:12:26.228Z,12.6
2017-11-17T08:13:28.725Z,12.7
2017-11-17T08:14:31.227Z,12.9
2017-11-17T08:15:33.724Z,13
2017-11-17T08:16:36.523Z,13.1
2017-11-17T08:17:39.362Z,13.3
2017-11-17T08:18:41.841Z,13.4
2017-11-17T08:19:44.358Z,13.5
2017-11-17T08:20:46.852Z,13.6
2017-11-17T08:21:49.631Z,13.7
2017-11-17T08:22:52.135Z,13.8
2017-11-17T08:23:54.630Z,13.9
2017-11-17T08:24:57.477Z,14
2017-11-17T08:25:59.977Z,14.1
2017-11-17T08:27:02.480Z,14.2
2017-11-17T08:28:04.986Z,14.2
2017-11-17T08:29:07.465Z,14.3
2017-11-17T08:30:09.984Z,14.4
2017-11-17T08:31:12.472Z,14.4
2017-11-17T08:32:14.979Z,14.5
2017-11-17T08:33:17.776Z,14.5
2017-11-17T08:34:20.271Z,14.6
2017-11-17T08:35:22.770Z,14.7
2017-11-17T08:36:25.282Z,14.7
2017-11-17T08:37:27.775Z,14.8
2017-11-17T08:38:30.292Z,14.9
2017-11-17T08:39:32.779Z,14.9
2017-11-17T08:40:35.286Z,15
2017-11-17T08:41:37.793Z,15.1
2017-11-17T08:42:40.295Z,15.1
2017-11-17T08:43:43.089Z,15.2
2017-11-17T08:44:45.603Z,15.3
2017-11-17T08:45:48.098Z,15.3
2017-11-17T08:46:50.605Z,15.4
2017-11-17T08:47:53.261Z,15.4
2017-11-17T08:48:56.202Z,15.5
2017-11-17T08:49:58.661Z,15.6
2017-11-17T08:51:01.176Z,15.7
2017-11-17T08:52:03.871Z,15.7
2017-11-17T08:53:06.547Z,15.8
2017-11-17T08:54:09.041Z,15.9
2017-11-17T08:55:11.543Z,16
2017-11-17T08:56:14.484Z,16.1
2017-11-17T08:57:16.995Z,16.2
2017-11-17T08:58:19.793Z,16.3
2017-11-17T08:59:22.298Z,16.4
2017-11-17T09:00:25.092Z,16.4
2017-11-17T09:01:27.600Z,16.5
2017-11-17T09:02:30.445Z,16.6
2017-11-17T09:03:32.935Z,16.6
2017-11-17T09:04:36.055Z,16.7
2017-11-17T09:05:38.556Z,16.8
2017-11-17T09:06:41.061Z,16.8
2017-11-17T09:07:43.569Z,16.9
2017-11-17T09:08:46.067Z,16.9
2017-11-17T09:09:48.853Z,17
2017-11-17T09:10:51.371Z,17.1
2017-11-17T09:11:54.188Z,17.2
2017-11-17T09:12:56.698Z,17.2
2017-11-17T09:13:59.206Z,17.4
2017-11-17T09:15:01.705Z,17.5
2017-11-17T09:16:04.219Z,17.6
2017-11-17T09:17:06.752Z,17.7
2017-11-17T09:18:09.241Z,17.8
2017-11-17T09:19:12.054Z,17.9
2017-11-17T09:20:14.554Z,18.1
2017-11-17T09:21:17.051Z,18.2
2017-11-17T09:22:19.557Z,18.3
2017-11-17T09:23:22.060Z,18.5
2017-11-17T09:24:24.556Z,18.6
2017-11-17T09:25:27.067Z,18.7
2017-11-17T09:26:29.575Z,18.9
2017-11-17T09:27:32.090Z,19
2017-11-17T09:28:34.574Z,19.2
2017-11-17T09:29:37.081Z,19.3
2017-11-17T09:30:39.596Z,19.3
2017-11-17T09:31:42.419Z,19.5
2017-11-17T09:32:44.928Z,19.6
2017-11-17T09:33:47.438Z,19.7
2017-11-17T09:34:49.935Z,19.8
2017-11-17T09:35:52.750Z,19.9
2017-11-17T09:36:55.260Z,20
2017-11-17T09:37:57.752Z,20.2
2017-11-17T09:39:00.263Z,20.2
2017-11-17T09:40:02.770Z,20.3
2017-11-17T09:41:05.288Z,20.4
2017-11-17T09:42:08.094Z,20.5
2017-11-17T09:43:10.592Z,20.6
2017-11-17T09:44:13.097Z,20.7
2017-11-17T09:45:15.615Z,20.8
2017-11-17T09:46:18.129Z,20.8
2017-11-17T09:47:20.625Z,20.9
2017-11-17T09:48:23.135Z,20.9
2017-11-17T09:49:25.635Z,21
2017-11-17T09:50:28.157Z,21.1
2017-11-17T09:51:30.663Z,21.2
2017-11-17T09:52:33.154Z,21.3
2017-11-17T09:53:35.660Z,21.4
2017-11-17T09:54:38.468Z,21.4
2017-11-17T09:55:40.978Z,21.5
2017-11-17T09:56:43.493Z,21.6
2017-11-17T09:57:46.000Z,21.7
2017-11-17T09:58:48.513Z,21.7
2017-11-17T09:59:51.019Z,21.8
2017-11-17T10:00:53.539Z,21.9
2017-11-17T10:01:56.045Z,21.9
2017-11-17T10:02:58.566Z,22
2017-11-17T10:04:01.070Z,22.1
2017-11-17T10:05:03.898Z,22.1
2017-11-17T10:06:06.720Z,22.2
2017-11-17T10:07:09.231Z,22.2
2017-11-17T10:08:11.737Z,22.3
2017-11-17T10:09:14.255Z,22.3
2017-11-17T10:10:17.069Z,22.4
2017-11-17T10:11:19.871Z,22.5
2017-11-17T10:12:22.381Z,22.6
2017-11-17T10:13:25.191Z,22.7
2017-11-17T10:14:27.704Z,22.8
2017-11-17T10:15:30.214Z,22.9
2017-11-17T10:16:32.997Z,22.9
2017-11-17T10:17:35.850Z,22.9
2017-11-17T10:18:38.646Z,22.9
2017-11-17T10:19:41.151Z,22.9
2017-11-17T10:20:43.663Z,23
2017-11-17T10:21:46.172Z,23
2017-11-17T10:22:48.677Z,23.1
2017-11-17T10:23:51.496Z,23.1
2017-11-17T10:24:54.320Z,23.3
2017-11-17T10:25:57.115Z,23.4
2017-11-17T10:26:59.632Z,23.4
2017-11-17T10:28:02.154Z,23.6
2017-11-17T10:29:04.964Z,23.6
2017-11-17T10:30:07.474Z,23.7
2017-11-17T10:31:09.997Z,23.7
2017-11-17T10:32:12.502Z,23.8
2017-11-17T10:33:15.025Z,23.8
2017-11-17T10:34:17.539Z,23.9
2017-11-17T10:35:20.031Z,24
2017-11-17T10:36:22.547Z,24
2017-11-17T10:37:25.070Z,24.1
2017-11-17T10:38:27.583Z,24.1
2017-11-17T10:39:30.103Z,24.2
2017-11-17T10:40:32.892Z,24.3
2017-11-17T10:41:35.403Z,24.4
2017-11-17T10:42:37.935Z,24.5
2017-11-17T10:43:40.435Z,24.5
2017-11-17T10:44:43.247Z,24.6
2017-11-17T10:45:45.765Z,24.7
2017-11-17T10:46:48.273Z,24.8
2017-11-17T10:47:50.797Z,24.9
2017-11-17T10:48:53.613Z,25
2017-11-17T10:49:56.110Z,25
2017-11-17T10:50:58.643Z,25.1
2017-11-17T10:52:01.156Z,25
2017-11-17T10:53:03.670Z,25
2017-11-17T10:54:06.180Z,25.1
2017-11-17T10:55:08.699Z,25
2017-11-17T10:56:11.216Z,25.1
2017-11-17T10:57:13.727Z,25.1
2017-11-17T10:58:16.242Z,25.1
2017-11-17T10:59:19.065Z,25.1
2017-11-17T11:00:21.576Z,25.1
2017-11-17T11:01:24.377Z,25.2
2017-11-17T11:02:26.893Z,25.2
2017-11-17T11:03:29.729Z,25.3
2017-11-17T11:04:32.240Z,25.3
2017-11-17T11:05:34.743Z,25.3
2017-11-17T11:06:37.250Z,25.3
2017-11-17T11:07:39.754Z,25.3
2017-11-17T11:08:42.291Z,25.3
2017-11-17T11:09:44.798Z,25.3
2017-11-17T11:10:47.311Z,25.3
2017-11-17T11:11:49.815Z,25.3
2017-11-17T11:12:52.326Z,25.3
2017-11-17T11:13:54.871Z,25.3
2017-11-17T11:14:57.372Z,25.3
2017-11-17T11:15:59.873Z,25.3
2017-11-17T11:17:02.391Z,25.3
2017-11-17T11:18:04.904Z,25.3
2017-11-17T11:19:07.418Z,25.3
2017-11-17T11:20:09.934Z,25.3
2017-11-17T11:21:12.441Z,25.3
2017-11-17T11:22:14.983Z,25.3
2017-11-17T11:23:17.588Z,25.3
2017-11-17T11:24:20.102Z,25.3
2017-11-17T11:25:22.925Z,25.3
2017-11-17T11:26:25.447Z,25.3
2017-11-17T11:27:27.969Z,25.4
2017-11-17T11:28:30.482Z,25.5
2017-11-17T11:29:32.992Z,25.5
2017-11-17T11:30:35.804Z,25.5
2017-11-17T11:31:38.308Z,25.5
2017-11-17T11:32:40.838Z,25.5
2017-11-17T11:33:43.345Z,25.5
2017-11-17T11:34:45.860Z,25.5
2017-11-17T11:35:48.374Z,25.5
2017-11-17T11:36:50.889Z,25.5
2017-11-17T11:37:53.404Z,25.5
2017-11-17T11:38:55.929Z,25.6
2017-11-17T11:39:58.427Z,25.6
2017-11-17T11:41:00.940Z,25.7
2017-11-17T11:42:03.462Z,25.7
2017-11-17T11:43:05.972Z,25.8
2017-11-17T11:44:08.494Z,25.9
2017-11-17T11:45:11.011Z,25.9
2017-11-17T11:46:13.819Z,25.9
2017-11-17T11:47:16.350Z,25.9
2017-11-17T11:48:18.869Z,25.9
2017-11-17T11:49:21.383Z,25.9
2017-11-17T11:50:24.214Z,25.9
2017-11-17T11:51:26.730Z,25.9
2017-11-17T11:52:29.242Z,26
2017-11-17T11:53:31.765Z,25.9
2017-11-17T11:54:34.265Z,26
2017-11-17T11:55:37.382Z,26
2017-11-17T11:56:39.903Z,26
2017-11-17T11:57:42.411Z,26
2017-11-17T11:58:44.916Z,25.9
2017-11-17T11:59:47.432Z,25.8
2017-11-17T12:00:49.945Z,25.8
2017-11-17T12:01:52.779Z,25.7
2017-11-17T12:02:55.595Z,25.6
2017-11-17T12:03:58.094Z,25.5
2017-11-17T12:05:00.911Z,25.4
2017-11-17T12:06:03.439Z,25.2
2017-11-17T12:07:05.958Z,25.1
2017-11-17T12:08:08.465Z,24.9
2017-11-17T12:09:10.977Z,24.8
2017-11-17T12:10:13.807Z,24.7
2017-11-17T12:11:16.304Z,24.7
2017-11-17T12:12:18.822Z,24.7
2017-11-17T12:13:21.323Z,24.7
2017-11-17T12:14:23.843Z,24.7
2017-11-17T12:15:26.360Z,24.8
2017-11-17T12:16:28.865Z,24.8
2017-11-17T12:17:31.683Z,24.7
2017-11-17T12:18:34.486Z,24.7
2017-11-17T12:19:37.002Z,24.7
2017-11-17T12:20:39.519Z,24.7
2017-11-17T12:21:42.032Z,24.7
2017-11-17T12:22:44.551Z,24.7
2017-11-17T12:23:47.058Z,24.8
2017-11-17T12:24:49.574Z,24.7
2017-11-17T12:25:56.138Z,24.7
2017-11-17T12:27:04.786Z,24.6
2017-11-17T12:28:10.989Z,24.5
2017-11-17T12:29:13.505Z,24.5
2017-11-17T12:30:16.003Z,24.4
2017-11-17T12:31:18.535Z,24.3
2017-11-17T12:32:21.037Z,24.2
2017-11-17T12:33:23.554Z,24.2
2017-11-17T12:34:26.065Z,24.2
2017-11-17T12:35:28.584Z,24.2
2017-11-17T12:36:31.392Z,24.3
2017-11-17T12:37:33.925Z,24.3
2017-11-17T12:38:36.422Z,24.2
2017-11-17T12:39:39.248Z,24.1
2017-11-17T12:40:42.060Z,24
2017-11-17T12:41:44.594Z,23.9
2017-11-17T12:42:47.186Z,23.8
2017-11-17T12:43:51.123Z,23.7
2017-11-17T12:44:53.654Z,23.6
2017-11-17T12:45:56.215Z,23.5
2017-11-17T12:46:59.040Z,23.3
2017-11-17T12:48:01.884Z,23.3
2017-11-17T12:49:04.476Z,23.2
2017-11-17T12:50:06.985Z,23.2
2017-11-17T12:51:09.574Z,23.1
2017-11-17T12:52:12.118Z,23.1
2017-11-17T12:53:14.631Z,23.1
2017-11-17T12:54:17.158Z,23
2017-11-17T12:55:19.729Z,23
2017-11-17T12:56:22.352Z,22.9
2017-11-17T12:57:24.872Z,22.8
2017-11-17T12:58:27.384Z,22.7
2017-11-17T12:59:29.909Z,22.6
2017-11-17T13:00:32.780Z,22.5
2017-11-17T13:01:35.632Z,22.4
2017-11-17T13:02:38.442Z,22.4
2017-11-17T13:03:40.955Z,22.3
2017-11-17T13:04:43.461Z,22.2
2017-11-17T13:05:46.600Z,22.1
2017-11-17T13:06:49.421Z,22
2017-11-17T13:07:51.928Z,21.9
2017-11-17T13:08:54.787Z,21.9
2017-11-17T13:09:57.340Z,21.8
2017-11-17T13:10:59.861Z,21.8
2017-11-17T13:12:02.677Z,21.8
2017-11-17T13:13:05.173Z,21.8
2017-11-17T13:14:07.981Z,21.8
2017-11-17T13:15:10.513Z,21.7
2017-11-17T13:16:13.027Z,21.6
2017-11-17T13:17:15.999Z,21.6
2017-11-17T13:18:18.795Z,21.5
2017-11-17T13:19:21.343Z,21.5
2017-11-17T13:20:23.885Z,21.4
2017-11-17T13:21:26.461Z,21.3
2017-11-17T13:22:28.971Z,21.2
2017-11-17T13:23:31.486Z,21.2
2017-11-17T13:24:37.760Z,21.1
2017-11-17T13:25:47.597Z,21
2017-11-17T13:27:02.785Z,20.9
2017-11-17T13:28:13.525Z,20.8
2017-11-17T13:29:26.251Z,20.6
2017-11-17T13:30:34.992Z,20.4
2017-11-17T13:31:45.017Z,20.3
2017-11-17T13:32:49.193Z,20.1
2017-11-17T13:33:59.458Z,20
2017-11-17T13:35:15.054Z,19.8
2017-11-17T13:36:27.126Z,19.6
2017-11-17T13:37:41.240Z,19.5
2017-11-17T13:38:55.998Z,19.4
2017-11-17T13:40:07.691Z,19.2
2017-11-17T13:41:18.402Z,19.1
2017-11-17T13:42:24.816Z,19
2017-11-17T13:43:27.329Z,18.9
2017-11-17T13:44:29.841Z,18.8
2017-11-17T13:45:33.040Z,18.7
2017-11-17T13:46:35.841Z,18.6
2017-11-17T13:47:38.394Z,18.5
2017-11-17T13:48:40.910Z,18.4
2017-11-17T13:49:43.402Z,18.3
2017-11-17T13:50:45.908Z,18.2
2017-11-17T13:51:48.414Z,18.1
2017-11-17T13:52:51.671Z,18
2017-11-17T13:53:54.775Z,17.9
2017-11-17T13:54:57.908Z,17.9
2017-11-17T13:56:01.006Z,17.7
2017-11-17T13:57:03.609Z,17.7
2017-11-17T13:58:06.519Z,17.6
2017-11-17T13:59:09.099Z,17.6
2017-11-17T14:00:11.897Z,17.6
2017-11-17T14:01:14.403Z,17.5
2017-11-17T14:02:16.918Z,17.5
2017-11-17T14:03:19.413Z,17.5